Time;durP1;ratioP1;P1;durP2;ratioP2;P2;SDS_P1;SDS_P2;PMS_P1;PMS_P2;Temp;Humidity;BMP_temperature;BMP_pressure;BME280_temperature;BME280_humidity;BME280_pressure;Samples;Min_cycle;Max_cycle;Signal;HPM_P1;HPM_P2
2022/03/30 00:01:04;;;;;;;29.23;13.23;;;17.80;38.90;;;;;;5043698;28;20446;-42
2022/03/30 00:03:29;;;;;;;16.50;13.00;;;17.70;39.00;;;;;;5046459;28;20267;-41
2022/03/30 00:05:56;;;;;;;19.53;13.03;;;17.60;39.30;;;;;;5041760;28;20263;-41
2022/03/30 00:08:21;;;;;;;17.87;12.27;;;17.50;39.70;;;;;;5054594;28;20196;-42
2022/03/30 00:10:47;;;;;;;31.70;12.70;;;17.50;39.80;;;;;;5042917;28;20446;-41
2022/03/30 00:13:13;;;;;;;19.67;13.00;;;17.60;39.90;;;;;;5042902;28;20737;-42
2022/03/30 00:15:39;;;;;;;26.70;13.80;;;17.80;39.70;;;;;;5041903;28;20223;-41
2022/03/30 00:18:04;;;;;;;17.27;10.80;;;17.80;39.40;;;;;;5042053;28;20553;-41
2022/03/30 00:20:30;;;;;;;15.13;11.27;;;17.90;39.20;;;;;;5042595;28;20615;-41
2022/03/30 00:22:56;;;;;;;24.10;12.73;;;17.90;39.30;;;;;;5045157;28;21038;-41
2022/03/30 00:25:21;;;;;;;19.40;11.37;;;17.90;39.30;;;;;;5041537;28;20203;-41
2022/03/30 00:27:47;;;;;;;18.73;12.07;;;18.00;39.20;;;;;;5042133;28;20193;-41
2022/03/30 00:30:16;;;;;;;19.77;10.83;;;17.90;39.80;;;;;;5043943;28;20203;-41
2022/03/30 00:32:42;;;;;;;20.93;12.50;;;18.00;39.40;;;;;;5042384;28;20234;-41
2022/03/30 00:35:08;;;;;;;15.20;11.73;;;17.90;39.50;;;;;;5044422;28;20447;-41
2022/03/30 00:37:35;;;;;;;21.27;12.93;;;17.90;39.70;;;;;;5043421;28;20833;-41
2022/03/30 00:40:03;;;;;;;18.10;12.83;;;17.80;39.80;;;;;;5039308;28;20520;-41
2022/03/30 00:42:29;;;;;;;22.30;12.50;;;17.80;39.90;;;;;;5044378;28;20538;-41
2022/03/30 00:44:55;;;;;;;15.00;11.23;;;17.80;39.90;;;;;;5042820;28;20857;-41
2022/03/30 00:47:26;;;;;;;22.67;12.13;;;17.80;39.70;;;;;;5053033;28;20193;-41
2022/03/30 00:49:52;;;;;;;14.97;11.07;;;17.90;39.80;;;;;;5043280;28;20323;-42
2022/03/30 00:52:20;;;;;;;20.50;12.33;;;17.90;39.70;;;;;;5041670;28;20846;-41
2022/03/30 00:54:49;;;;;;;17.63;12.27;;;17.90;39.80;;;;;;5040537;28;20482;-42
2022/03/30 00:57:16;;;;;;;16.50;12.00;;;17.90;40.10;;;;;;5045184;28;20443;-41
2022/03/30 00:59:42;;;;;;;20.93;11.87;;;17.90;40.30;;;;;;5039553;28;22773;-41
2022/03/30 01:02:09;;;;;;;23.07;11.83;;;17.80;40.50;;;;;;5043436;28;20454;-41
2022/03/30 01:04:35;;;;;;;17.40;12.20;;;17.80;40.60;;;;;;5043802;28;20937;-41
2022/03/30 01:07:02;;;;;;;18.57;12.90;;;17.90;40.60;;;;;;5043627;28;21080;-41
2022/03/30 01:09:28;;;;;;;17.80;12.07;;;17.90;40.60;;;;;;5038070;28;20448;-41
2022/03/30 01:11:55;;;;;;;23.07;12.53;;;17.80;40.60;;;;;;5041706;28;20490;-41
2022/03/30 01:14:22;;;;;;;20.37;12.50;;;17.80;40.70;;;;;;5041152;28;20815;-41
2022/03/30 01:16:48;;;;;;;20.70;13.33;;;17.80;40.50;;;;;;5043884;28;20453;-42
2022/03/30 01:19:14;;;;;;;22.03;13.37;;;17.60;40.20;;;;;;5043050;28;20490;-41
2022/03/30 01:21:42;;;;;;;21.27;13.10;;;17.60;40.40;;;;;;5043306;28;20455;-42
2022/03/30 01:24:09;;;;;;;18.63;12.60;;;17.50;40.40;;;;;;5044864;28;20486;-41
2022/03/30 01:26:35;;;;;;;20.23;13.10;;;17.60;40.60;;;;;;5045922;28;20542;-41
2022/03/30 01:32:24;;;;;;;21.37;14.47;;;17.60;40.80;;;;;;5044047;28;20794;-41
2022/03/30 01:34:37;;;;;;;20.23;13.60;;;17.70;41.40;;;;;;5041583;28;20534;-41
2022/03/30 01:37:05;;;;;;;17.60;14.83;;;17.70;41.90;;;;;;5043769;28;20534;-41
2022/03/30 01:39:30;;;;;;;20.27;13.17;;;17.70;42.40;;;;;;5046063;28;20235;-41
2022/03/30 01:41:56;;;;;;;21.87;14.23;;;17.70;42.30;;;;;;5043908;28;20852;-41
2022/03/30 01:44:22;;;;;;;18.50;13.70;;;17.70;42.10;;;;;;5045488;28;20193;-41
2022/03/30 01:46:47;;;;;;;22.13;13.67;;;17.70;42.20;;;;;;5048288;28;20644;-41
2022/03/30 01:49:13;;;;;;;16.67;12.67;;;17.60;42.30;;;;;;5045366;28;20200;-41
2022/03/30 01:51:38;;;;;;;21.20;13.57;;;17.60;42.40;;;;;;5049622;28;20311;-41
2022/03/30 01:54:04;;;;;;;17.27;13.30;;;17.50;42.60;;;;;;5046385;28;20204;-41
2022/03/30 01:56:30;;;;;;;18.63;13.20;;;17.50;42.80;;;;;;5049459;28;20212;-41
2022/03/30 01:58:56;;;;;;;16.70;12.80;;;17.40;42.80;;;;;;5046236;28;20305;-41
2022/03/30 02:01:21;;;;;;;23.37;13.67;;;17.40;43.10;;;;;;5044757;28;20446;-41
2022/03/30 02:03:47;;;;;;;22.83;13.87;;;17.40;43.30;;;;;;5043881;28;20283;-41
2022/03/30 02:06:14;;;;;;;20.30;14.47;;;17.30;43.10;;;;;;5043171;28;20214;-41
2022/03/30 02:08:40;;;;;;;22.90;14.20;;;17.30;43.30;;;;;;5046773;28;20192;-41
2022/03/30 02:11:05;;;;;;;21.17;12.60;;;17.40;43.70;;;;;;5026522;28;20533;-41
2022/03/30 02:13:31;;;;;;;30.60;14.70;;;17.40;44.00;;;;;;5046177;28;20200;-41
2022/03/30 02:15:56;;;;;;;24.07;14.50;;;17.50;44.30;;;;;;5022631;28;20219;-41
2022/03/30 02:18:23;;;;;;;21.83;14.00;;;17.50;44.40;;;;;;5041729;28;20216;-41
2022/03/30 02:20:48;;;;;;;20.43;16.27;;;17.60;44.50;;;;;;5040079;28;20204;-41
2022/03/30 02:23:14;;;;;;;25.83;16.73;;;17.60;44.20;;;;;;5042827;28;20475;-42
2022/03/30 02:25:40;;;;;;;20.73;14.70;;;17.50;44.20;;;;;;5045792;28;20204;-40
2022/03/30 02:28:05;;;;;;;21.70;15.60;;;17.40;44.50;;;;;;5045168;28;20571;-40
2022/03/30 02:30:31;;;;;;;20.90;13.40;;;17.40;44.90;;;;;;5046596;28;20279;-41
2022/03/30 02:32:57;;;;;;;27.13;13.97;;;17.30;44.60;;;;;;5041825;28;20691;-41
2022/03/30 02:35:23;;;;;;;20.00;14.83;;;17.40;44.40;;;;;;5038450;28;20224;-41
2022/03/30 02:37:49;;;;;;;19.40;12.73;;;17.40;44.00;;;;;;5048860;28;21095;-41
2022/03/30 02:40:15;;;;;;;24.83;15.57;;;17.50;43.70;;;;;;5043134;28;20246;-41
2022/03/30 02:42:40;;;;;;;17.87;15.27;;;17.60;43.60;;;;;;5044217;28;20196;-41
2022/03/30 02:45:07;;;;;;;16.30;12.67;;;17.50;43.20;;;;;;5042813;28;20567;-41
2022/03/30 02:50:17;;;;;;;17.40;13.70;;;17.50;43.20;;;;;;5043813;28;20482;-42
2022/03/30 02:52:42;;;;;;;22.40;15.50;;;17.60;42.90;;;;;;5044614;28;20554;-41
2022/03/30 02:55:08;;;;;;;21.43;13.67;;;17.50;43.00;;;;;;5044728;28;20200;-41
2022/03/30 02:57:34;;;;;;;16.40;13.10;;;17.50;43.10;;;;;;5045788;28;20219;-41
2022/03/30 03:00:00;;;;;;;19.93;12.50;;;17.50;43.30;;;;;;5049582;28;20495;-42
2022/03/30 03:02:26;;;;;;;19.33;14.47;;;17.40;43.30;;;;;;5039906;28;20189;-42
2022/03/30 03:04:51;;;;;;;16.70;13.50;;;17.40;43.30;;;;;;5041570;28;20201;-41
2022/03/30 03:07:17;;;;;;;25.43;14.07;;;17.30;43.40;;;;;;5043646;28;20529;-42
2022/03/30 03:09:43;;;;;;;20.67;12.80;;;17.30;43.50;;;;;;5041959;28;20881;-41
2022/03/30 03:12:08;;;;;;;27.03;13.20;;;17.10;43.70;;;;;;5044462;28;20279;-42
2022/03/30 03:14:34;;;;;;;19.33;11.87;;;17.00;43.80;;;;;;5044751;28;20197;-41
2022/03/30 03:17:00;;;;;;;20.43;12.20;;;17.00;43.90;;;;;;5044665;28;20222;-41
2022/03/30 03:19:25;;;;;;;13.63;11.43;;;17.00;43.90;;;;;;5044911;28;20227;-42
2022/03/30 03:21:51;;;;;;;19.00;13.30;;;17.00;44.00;;;;;;5042870;28;20200;-42
2022/03/30 03:24:17;;;;;;;20.30;14.63;;;16.90;44.30;;;;;;5044663;28;20745;-45
2022/03/30 03:26:43;;;;;;;24.17;15.00;;;16.90;44.50;;;;;;5045386;28;20192;-41
2022/03/30 03:29:08;;;;;;;21.80;14.27;;;16.80;44.50;;;;;;5043770;28;20573;-41
2022/03/30 03:31:34;;;;;;;19.20;12.33;;;16.60;44.70;;;;;;5042863;28;20435;-41
2022/03/30 03:34:00;;;;;;;16.10;12.43;;;16.40;45.00;;;;;;5045051;28;20196;-41
2022/03/30 03:36:25;;;;;;;18.67;14.13;;;16.30;45.40;;;;;;5047034;28;20268;-42
2022/03/30 03:38:51;;;;;;;20.93;14.10;;;16.20;45.80;;;;;;5043781;28;20584;-42
2022/03/30 03:41:17;;;;;;;17.87;13.60;;;16.10;46.00;;;;;;5055682;28;20238;-42
2022/03/30 03:43:42;;;;;;;18.10;13.57;;;16.20;46.10;;;;;;5044951;28;20904;-43
2022/03/30 03:46:08;;;;;;;19.50;13.87;;;16.20;46.10;;;;;;5049802;28;20273;-42
2022/03/30 03:48:34;;;;;;;16.70;14.40;;;16.20;46.00;;;;;;5043647;28;20246;-43
2022/03/30 03:51:00;;;;;;;29.13;13.93;;;16.30;45.80;;;;;;5046338;28;20266;-43
2022/03/30 03:53:25;;;;;;;18.23;14.47;;;16.30;45.70;;;;;;5050729;28;20201;-42
2022/03/30 03:55:51;;;;;;;19.87;16.30;;;16.40;45.80;;;;;;5047203;28;20197;-43
2022/03/30 03:58:16;;;;;;;18.90;15.50;;;16.40;45.70;;;;;;5043689;28;20242;-43
2022/03/30 04:00:42;;;;;;;20.20;14.70;;;16.40;45.60;;;;;;5046840;28;20200;-42
2022/03/30 04:03:08;;;;;;;18.17;14.50;;;16.40;45.60;;;;;;5046282;28;20196;-43
2022/03/30 04:05:34;;;;;;;19.53;15.23;;;16.40;45.80;;;;;;5046335;28;20938;-43
2022/03/30 04:07:59;;;;;;;21.73;15.63;;;16.40;45.80;;;;;;5044868;28;20203;-42
2022/03/30 04:10:25;;;;;;;35.43;17.00;;;16.40;45.90;;;;;;5055871;28;20206;-43
2022/03/30 04:12:51;;;;;;;21.43;15.23;;;16.40;46.30;;;;;;5039378;28;20197;-43
2022/03/30 04:15:17;;;;;;;21.33;15.90;;;16.40;46.70;;;;;;5041197;28;21153;-42
2022/03/30 04:17:46;;;;;;;27.50;17.20;;;16.40;47.00;;;;;;5045933;28;21792;-43
2022/03/30 04:20:13;;;;;;;23.50;15.20;;;16.40;46.90;;;;;;5041418;28;20621;-43
2022/03/30 04:22:40;;;;;;;21.47;15.30;;;16.40;46.90;;;;;;5039455;28;20439;-43
2022/03/30 04:25:06;;;;;;;20.27;15.73;;;16.40;47.10;;;;;;5041875;28;20463;-43
2022/03/30 04:27:32;;;;;;;26.97;15.40;;;16.40;47.20;;;;;;5046895;28;20454;-43
2022/03/30 04:29:57;;;;;;;19.30;16.00;;;16.40;47.50;;;;;;5043480;28;20792;-42
2022/03/30 04:32:23;;;;;;;20.43;17.03;;;16.40;47.60;;;;;;5043559;28;20193;-44
2022/03/30 04:34:49;;;;;;;19.13;15.40;;;16.40;47.80;;;;;;5042638;28;20201;-42
2022/03/30 04:37:14;;;;;;;19.03;15.70;;;16.40;48.00;;;;;;5040359;28;20192;-42
2022/03/30 04:39:40;;;;;;;23.03;18.40;;;16.40;48.20;;;;;;5041137;28;20336;-42
2022/03/30 04:42:06;;;;;;;25.80;18.90;;;16.10;48.70;;;;;;5039098;28;20193;-43
2022/03/30 04:44:32;;;;;;;28.03;17.50;;;16.00;49.00;;;;;;5039757;28;20257;-43
2022/03/30 04:46:57;;;;;;;27.60;17.53;;;15.90;49.30;;;;;;5026303;28;20450;-43
2022/03/30 04:49:23;;;;;;;27.10;19.33;;;16.00;49.50;;;;;;5043321;28;20199;-43
2022/03/30 04:51:49;;;;;;;25.27;18.47;;;15.90;49.80;;;;;;5044477;28;20192;-43
2022/03/30 04:54:15;;;;;;;25.27;18.47;;;15.80;49.70;;;;;;5041193;28;20220;-44
2022/03/30 04:56:41;;;;;;;26.03;19.20;;;15.90;49.60;;;;;;5046123;28;20212;-43
2022/03/30 04:59:07;;;;;;;22.97;17.37;;;16.00;49.70;;;;;;5044774;28;20849;-44
2022/03/30 05:01:32;;;;;;;23.40;16.73;;;16.00;49.70;;;;;;5045279;28;20228;-43
2022/03/30 05:03:58;;;;;;;26.00;18.77;;;16.00;50.00;;;;;;5043603;28;20204;-43
2022/03/30 05:06:24;;;;;;;28.00;17.03;;;16.00;50.10;;;;;;5041334;28;20203;-43
2022/03/30 05:08:49;;;;;;;24.07;17.00;;;16.10;50.30;;;;;;5039975;28;20192;-43
2022/03/30 05:11:15;;;;;;;27.47;19.70;;;16.10;50.50;;;;;;5041599;28;20275;-43
2022/03/30 05:13:40;;;;;;;20.00;16.53;;;16.20;51.00;;;;;;5039820;28;20209;-43
2022/03/30 05:16:06;;;;;;;22.13;15.83;;;16.20;51.30;;;;;;5040748;28;20206;-43
2022/03/30 05:18:31;;;;;;;23.60;17.87;;;16.20;51.80;;;;;;5043600;28;20626;-44
2022/03/30 05:20:57;;;;;;;19.83;16.77;;;16.20;52.30;;;;;;5041256;28;20200;-45
2022/03/30 05:23:23;;;;;;;28.70;16.87;;;16.20;52.40;;;;;;5043892;28;20231;-43
2022/03/30 05:25:48;;;;;;;26.43;15.63;;;16.30;52.50;;;;;;5041304;28;20195;-43
2022/03/30 05:28:14;;;;;;;25.97;18.90;;;16.30;52.40;;;;;;5042383;28;20284;-42
2022/03/30 05:30:39;;;;;;;22.50;17.77;;;16.40;52.00;;;;;;5042206;28;20192;-43
2022/03/30 05:33:05;;;;;;;22.90;17.97;;;16.50;52.50;;;;;;5041584;28;20196;-43
2022/03/30 05:35:30;;;;;;;25.27;18.30;;;16.40;53.60;;;;;;5041671;28;20193;-43
2022/03/30 05:37:56;;;;;;;27.37;18.50;;;16.40;54.20;;;;;;5041726;28;20376;-43
2022/03/30 05:40:22;;;;;;;24.00;19.10;;;16.50;54.60;;;;;;5042710;28;20189;-43
2022/03/30 05:42:47;;;;;;;23.27;16.60;;;16.50;54.60;;;;;;5044548;28;20588;-42
2022/03/30 05:45:13;;;;;;;24.63;20.20;;;16.50;54.60;;;;;;5042550;28;20280;-42
2022/03/30 05:47:38;;;;;;;21.30;18.73;;;16.50;54.30;;;;;;5041186;28;21933;-43
2022/03/30 05:50:07;;;;;;;25.73;19.00;;;16.50;54.30;;;;;;5046611;28;20193;-42
2022/03/30 05:52:33;;;;;;;24.70;19.20;;;16.50;54.30;;;;;;5046808;28;20189;-42
2022/03/30 05:54:58;;;;;;;31.37;19.40;;;16.50;54.10;;;;;;5047770;28;20427;-43
2022/03/30 05:57:24;;;;;;;25.33;17.97;;;16.50;54.40;;;;;;5047783;28;20203;-42
2022/03/30 05:59:50;;;;;;;25.03;18.80;;;16.50;54.90;;;;;;5047313;28;20228;-42
2022/03/30 06:02:16;;;;;;;25.80;19.67;;;16.50;55.00;;;;;;5049530;28;20196;-43
2022/03/30 06:04:42;;;;;;;25.70;17.90;;;16.50;55.40;;;;;;5050830;28;20191;-42
2022/03/30 06:07:08;;;;;;;25.73;18.17;;;16.50;55.50;;;;;;5051185;28;20514;-42
2022/03/30 06:09:34;;;;;;;30.87;18.23;;;16.50;55.40;;;;;;5050802;28;20427;-42
2022/03/30 06:12:04;;;;;;;23.90;18.63;;;16.50;55.20;;;;;;5051131;28;20419;-42
2022/03/30 06:14:30;;;;;;;23.53;17.60;;;16.50;55.20;;;;;;5050823;28;20200;-42
2022/03/30 06:16:57;;;;;;;24.27;19.33;;;16.50;55.20;;;;;;5052544;28;20529;-42
2022/03/30 06:19:23;;;;;;;24.43;17.80;;;16.60;55.40;;;;;;5049433;28;20525;-44
2022/03/30 06:21:49;;;;;;;27.93;20.77;;;16.50;55.40;;;;;;5051260;28;20952;-42
2022/03/30 06:24:15;;;;;;;26.73;18.90;;;16.50;55.40;;;;;;5051453;28;20509;-42
2022/03/30 06:26:41;;;;;;;27.77;19.70;;;16.50;55.50;;;;;;5051803;28;20288;-42
2022/03/30 06:29:08;;;;;;;26.60;20.20;;;16.40;56.00;;;;;;5050931;28;20431;-42
2022/03/30 06:31:36;;;;;;;24.40;19.60;;;16.40;56.40;;;;;;5051026;28;20443;-42
2022/03/30 06:34:02;;;;;;;29.73;19.67;;;16.50;56.50;;;;;;5050638;28;20799;-42
2022/03/30 06:36:29;;;;;;;29.77;19.50;;;16.50;56.30;;;;;;5051638;28;20451;-42
2022/03/30 06:38:55;;;;;;;24.87;18.47;;;16.50;56.20;;;;;;5049850;28;21005;-42
2022/03/30 06:41:21;;;;;;;29.17;19.80;;;16.50;56.00;;;;;;5050263;28;20446;-42
2022/03/30 06:43:47;;;;;;;27.80;20.67;;;16.60;55.90;;;;;;5049991;28;21013;-42
2022/03/30 06:46:14;;;;;;;30.17;20.97;;;16.60;55.90;;;;;;5050922;28;20428;-42
2022/03/30 06:48:40;;;;;;;27.30;18.83;;;16.60;55.90;;;;;;5031225;28;20193;-43
2022/03/30 06:51:05;;;;;;;25.10;17.33;;;16.50;55.90;;;;;;5051528;28;20435;-42
2022/03/30 06:53:31;;;;;;;28.13;19.67;;;16.60;55.70;;;;;;5050316;28;20231;-42
2022/03/30 06:55:57;;;;;;;25.30;17.80;;;16.60;55.60;;;;;;5051512;28;20771;-42
2022/03/30 06:58:23;;;;;;;33.67;18.07;;;16.60;55.80;;;;;;5051697;28;20224;-42
2022/03/30 07:00:50;;;;;;;24.93;18.43;;;16.50;56.00;;;;;;5051135;28;20199;-42
2022/03/30 07:03:15;;;;;;;26.77;17.13;;;16.50;55.80;;;;;;5051154;28;20949;-42
2022/03/30 07:05:41;;;;;;;33.07;22.90;;;16.50;55.80;;;;;;5050665;28;20436;-42
2022/03/30 07:10:51;;;;;;;33.57;25.10;;;16.50;56.00;;;;;;5051178;28;20572;-42
2022/03/30 07:13:17;;;;;;;30.83;21.70;;;16.50;56.30;;;;;;5050806;28;20925;-42
2022/03/30 07:15:42;;;;;;;30.20;22.77;;;16.50;56.40;;;;;;5049200;28;20745;-42
2022/03/30 07:18:08;;;;;;;30.77;19.57;;;16.50;56.50;;;;;;5051216;28;20193;-42
2022/03/30 07:20:35;;;;;;;25.37;19.07;;;16.40;56.60;;;;;;5050585;28;20241;-42
2022/03/30 07:23:01;;;;;;;26.37;19.60;;;16.30;56.90;;;;;;5051279;28;20435;-42
2022/03/30 07:25:28;;;;;;;27.10;19.50;;;16.40;56.80;;;;;;5050797;28;20431;-42
2022/03/30 07:27:56;;;;;;;34.67;20.80;;;16.50;56.80;;;;;;5050907;28;20434;-42
2022/03/30 07:30:22;;;;;;;24.30;18.50;;;16.20;57.10;;;;;;5051233;28;20432;-42
2022/03/30 07:32:50;;;;;;;31.90;21.20;;;16.10;57.30;;;;;;5051314;28;20442;-42
2022/03/30 07:35:17;;;;;;;26.50;18.93;;;16.20;57.40;;;;;;5050499;28;20435;-42
2022/03/30 07:37:44;;;;;;;28.93;20.63;;;16.20;57.70;;;;;;5050856;28;20442;-42
2022/03/30 07:40:12;;;;;;;30.63;18.00;;;16.30;57.80;;;;;;5050535;28;20487;-42
2022/03/30 07:42:39;;;;;;;21.30;18.17;;;16.30;57.40;;;;;;5049492;28;20481;-42
2022/03/30 07:45:05;;;;;;;26.57;18.93;;;16.30;57.50;;;;;;5049942;28;20477;-42
2022/03/30 07:47:31;;;;;;;23.03;18.10;;;16.20;57.70;;;;;;5050403;28;20435;-42
2022/03/30 07:49:58;;;;;;;26.50;19.80;;;16.20;57.80;;;;;;5050465;28;20427;-42
2022/03/30 07:52:23;;;;;;;27.60;19.60;;;16.30;57.60;;;;;;5051187;28;20197;-42
2022/03/30 07:54:50;;;;;;;25.87;19.73;;;16.40;57.60;;;;;;5050477;28;20435;-42
2022/03/30 07:57:16;;;;;;;29.83;18.37;;;16.30;57.70;;;;;;5050303;28;20200;-42
2022/03/30 07:59:42;;;;;;;32.70;20.97;;;16.20;57.80;;;;;;5049856;28;20994;-42
2022/03/30 08:02:09;;;;;;;31.80;18.10;;;15.90;58.20;;;;;;5051181;28;20466;-43
2022/03/30 08:04:34;;;;;;;28.50;20.03;;;15.80;59.00;;;;;;5050156;28;20435;-42
2022/03/30 08:07:00;;;;;;;31.63;20.53;;;15.90;59.00;;;;;;5032483;28;20435;-42
2022/03/30 08:09:26;;;;;;;36.87;21.13;;;16.00;58.90;;;;;;5048813;28;20216;-42
2022/03/30 08:11:52;;;;;;;31.90;21.20;;;16.10;58.90;;;;;;5049662;28;20727;-42
2022/03/30 08:14:19;;;;;;;34.20;22.50;;;16.20;58.70;;;;;;5046544;28;20542;-42
2022/03/30 08:16:44;;;;;;;31.07;22.13;;;16.30;58.70;;;;;;5047159;28;20199;-42
2022/03/30 08:19:10;;;;;;;34.40;21.13;;;16.30;58.60;;;;;;5040817;28;21018;-42
2022/03/30 08:24:21;;;;;;;27.90;17.50;;;16.30;58.10;;;;;;5045275;28;20723;-42
2022/03/30 08:26:47;;;;;;;27.63;17.47;;;16.20;58.00;;;;;;5047038;28;20450;-42
2022/03/30 08:29:12;;;;;;;25.30;18.63;;;16.20;58.40;;;;;;5044865;28;20423;-42
2022/03/30 08:31:38;;;;;;;34.00;19.03;;;16.20;58.00;;;;;;5049319;28;20262;-43
2022/03/30 08:34:04;;;;;;;22.07;17.07;;;16.30;58.00;;;;;;5048892;28;20656;-42
2022/03/30 08:36:30;;;;;;;21.03;15.57;;;16.50;57.80;;;;;;5045867;28;20223;-43
2022/03/30 08:38:57;;;;;;;28.77;18.57;;;16.50;57.80;;;;;;5045543;28;21241;-43
2022/03/30 08:41:23;;;;;;;28.37;17.40;;;16.20;58.00;;;;;;5048511;28;20434;-42
2022/03/30 08:43:48;;;;;;;28.00;19.57;;;16.20;58.80;;;;;;5046291;28;20435;-42
2022/03/30 08:46:14;;;;;;;30.67;18.80;;;16.40;58.70;;;;;;5043929;28;20195;-43
2022/03/30 08:48:41;;;;;;;26.07;18.73;;;16.40;58.70;;;;;;5047670;28;20446;-43
2022/03/30 08:51:07;;;;;;;28.90;18.23;;;16.50;58.00;;;;;;5052466;28;20188;-43
2022/03/30 08:53:33;;;;;;;24.63;15.00;;;16.60;57.50;;;;;;5047982;28;20462;-43
2022/03/30 08:55:59;;;;;;;23.37;16.77;;;16.70;57.30;;;;;;5052463;28;20442;-42
2022/03/30 08:58:25;;;;;;;29.47;18.23;;;16.80;57.00;;;;;;5057590;28;20215;-43
2022/03/30 09:00:52;;;;;;;27.27;18.90;;;16.80;57.10;;;;;;5058303;28;20207;-43
2022/03/30 09:03:18;;;;;;;26.60;19.13;;;16.80;57.60;;;;;;5051866;28;20931;-42
2022/03/30 09:05:44;;;;;;;25.97;16.23;;;16.90;57.30;;;;;;5050056;28;20442;-43
2022/03/30 09:08:14;;;;;;;25.77;16.97;;;16.90;56.90;;;;;;5048489;28;20431;-42
2022/03/30 09:10:42;;;;;;;23.83;16.80;;;17.00;56.80;;;;;;5048910;28;20713;-44
2022/03/30 09:13:09;;;;;;;21.20;16.60;;;16.90;56.90;;;;;;5050132;28;20482;-43
2022/03/30 09:15:36;;;;;;;24.80;15.90;;;16.60;57.50;;;;;;5048309;28;20457;-43
2022/03/30 09:18:06;;;;;;;25.50;16.20;;;16.50;58.00;;;;;;5042769;28;20450;-44
2022/03/30 09:20:33;;;;;;;24.80;16.83;;;16.20;59.00;;;;;;5037125;28;20483;-43
2022/03/30 09:23:00;;;;;;;30.97;17.43;;;15.80;60.30;;;;;;5042310;28;20883;-44
2022/03/30 09:25:30;;;;;;;21.93;16.10;;;15.80;61.00;;;;;;5039628;28;20802;-46
2022/03/30 09:27:58;;;;;;;25.90;15.03;;;16.00;60.90;;;;;;5040207;28;20447;-44
2022/03/30 09:30:25;;;;;;;35.17;17.30;;;16.00;60.70;;;;;;5042222;28;20625;-44
2022/03/30 09:32:53;;;;;;;25.57;17.20;;;15.80;61.20;;;;;;5041894;28;20447;-45
2022/03/30 09:35:24;;;;;;;24.97;16.90;;;15.50;61.40;;;;;;5037602;28;20497;-44
2022/03/30 09:38:15;;;;;;;26.20;16.10;;;15.60;62.20;;;;;;5043539;28;20478;-44
2022/03/30 09:40:49;;;;;;;22.97;15.37;;;15.80;61.40;;;;;;5045780;28;20604;-45
2022/03/30 09:43:26;;;;;;;22.17;15.67;;;15.70;61.20;;;;;;5044246;28;20492;-45
2022/03/30 09:46:13;;;;;;;24.73;16.00;;;15.60;61.70;;;;;;5042038;28;20446;-44
2022/03/30 09:48:49;;;;;;;26.70;14.50;;;15.20;63.70;;;;;;5044732;28;20438;-43
2022/03/30 09:51:17;;;;;;;31.53;17.13;;;15.40;63.50;;;;;;5042356;28;20486;-43
2022/03/30 09:53:43;;;;;;;21.00;14.20;;;15.40;63.30;;;;;;5043272;28;20441;-44
2022/03/30 09:56:14;;;;;;;28.17;15.77;;;15.60;62.80;;;;;;5044522;28;20516;-44
2022/03/30 09:58:40;;;;;;;30.10;16.40;;;15.70;62.50;;;;;;5039778;28;20494;-43
2022/03/30 10:01:23;;;;;;;29.53;13.63;;;15.80;61.80;;;;;;5042965;28;20434;-43
2022/03/30 10:03:53;;;;;;;25.07;14.97;;;15.70;62.00;;;;;;5041488;28;22417;-44
2022/03/30 10:06:34;;;;;;;24.73;14.67;;;15.80;61.80;;;;;;5046530;28;20441;-44
2022/03/30 10:09:00;;;;;;;23.43;13.90;;;15.80;61.50;;;;;;5046009;28;20435;-43
2022/03/30 10:11:27;;;;;;;28.13;12.47;;;15.70;61.50;;;;;;5046670;28;20432;-43
2022/03/30 10:13:58;;;;;;;26.73;14.30;;;15.80;61.40;;;;;;5049862;28;20197;-43
2022/03/30 10:16:24;;;;;;;26.20;14.43;;;15.90;61.20;;;;;;5049562;28;21279;-43
2022/03/30 10:18:51;;;;;;;25.77;14.30;;;16.00;61.20;;;;;;5043336;28;20478;-43
2022/03/30 10:21:44;;;;;;;25.80;12.77;;;16.00;60.80;;;;;;5043851;28;20478;-44
2022/03/30 10:24:30;;;;;;;24.03;12.17;;;16.10;60.40;;;;;;5024132;28;20487;-43
2022/03/30 10:27:08;;;;;;;29.27;13.80;;;16.30;60.60;;;;;;5047928;28;20493;-45
2022/03/30 10:29:35;;;;;;;27.03;13.93;;;16.50;59.80;;;;;;5046024;28;20471;-43
2022/03/30 10:32:17;;;;;;;30.63;12.80;;;16.60;59.70;;;;;;5046433;28;20467;-43
2022/03/30 10:34:57;;;;;;;20.17;12.43;;;16.70;59.10;;;;;;5045405;28;20497;-44
2022/03/30 10:37:34;;;;;;;20.37;12.63;;;16.80;59.00;;;;;;5045885;28;20435;-43
2022/03/30 10:40:03;;;;;;;24.10;12.03;;;16.80;59.00;;;;;;5044672;28;20474;-43
2022/03/30 10:42:52;;;;;;;23.67;15.50;;;16.90;57.80;;;;;;5048055;28;20449;-43
2022/03/30 10:45:36;;;;;;;23.53;13.27;;;16.90;57.70;;;;;;5045240;28;20435;-43
2022/03/30 10:48:37;;;;;;;22.37;11.43;;;16.90;57.80;;;;;;5045951;28;20504;-43
2022/03/30 10:51:12;;;;;;;19.53;11.53;;;16.90;58.10;;;;;;5043698;28;20604;-43
2022/03/30 10:53:41;;;;;;;18.87;10.70;;;16.30;58.80;;;;;;5046906;28;20499;-43
2022/03/30 10:56:07;;;;;;;19.63;10.37;;;16.40;59.10;;;;;;5045229;28;20835;-43
2022/03/30 10:58:34;;;;;;;27.97;14.50;;;16.50;59.10;;;;;;5044717;28;20473;-44
2022/03/30 11:01:28;;;;;;;25.00;13.60;;;16.70;58.80;;;;;;5044425;28;20200;-43
2022/03/30 11:04:21;;;;;;;28.30;15.70;;;16.80;58.40;;;;;;5048935;28;21271;-43
2022/03/30 11:07:15;;;;;;;20.23;10.57;;;17.00;58.20;;;;;;5046688;28;20435;-43
2022/03/30 11:09:42;;;;;;;15.50;11.10;;;17.10;58.00;;;;;;5045801;28;20459;-43
2022/03/30 11:12:12;;;;;;;14.97;11.00;;;17.20;58.10;;;;;;5047105;28;22227;-43
2022/03/30 11:14:44;;;;;;;20.27;11.90;;;17.30;58.00;;;;;;5047552;28;21282;-43
2022/03/30 11:17:15;;;;;;;22.77;13.23;;;17.30;57.30;;;;;;5046000;28;21149;-43
2022/03/30 11:19:47;;;;;;;17.80;10.17;;;17.30;56.70;;;;;;5040520;28;20508;-43
2022/03/30 11:22:21;;;;;;;21.60;11.77;;;17.30;56.70;;;;;;5042838;28;20445;-43
2022/03/30 11:25:07;;;;;;;19.30;11.23;;;17.20;56.80;;;;;;5044794;28;20489;-43
2022/03/30 11:27:34;;;;;;;19.17;10.77;;;17.30;57.00;;;;;;5043925;28;20537;-43
2022/03/30 11:30:12;;;;;;;23.10;11.50;;;17.40;57.00;;;;;;5045005;28;20432;-43
2022/03/30 11:33:02;;;;;;;26.50;15.00;;;17.60;56.90;;;;;;5042656;28;20496;-43
2022/03/30 11:35:34;;;;;;;24.70;13.93;;;17.60;56.80;;;;;;5035753;28;20851;-43
2022/03/30 11:38:05;;;;;;;19.47;12.90;;;17.70;57.30;;;;;;5045670;28;20494;-43
2022/03/30 11:40:35;;;;;;;38.77;21.73;;;17.70;56.90;;;;;;5048091;28;20516;-43
2022/03/30 11:43:01;;;;;;;33.87;21.87;;;17.70;56.60;;;;;;5048224;28;20442;-43
2022/03/30 11:45:29;;;;;;;45.53;23.00;;;17.70;56.70;;;;;;5044907;28;20535;-44
2022/03/30 11:47:56;;;;;;;38.23;21.43;;;17.70;56.70;;;;;;5042698;28;20893;-43
2022/03/30 11:50:37;;;;;;;38.40;24.10;;;17.80;56.90;;;;;;5043614;28;20463;-43
2022/03/30 11:53:02;;;;;;;37.00;23.43;;;17.80;57.50;;;;;;5046005;28;20439;-45
2022/03/30 11:55:29;;;;;;;41.93;23.53;;;17.80;57.50;;;;;;5044656;28;20891;-44
2022/03/30 11:57:57;;;;;;;40.57;22.07;;;17.80;57.60;;;;;;5048492;28;20195;-41
2022/03/30 12:00:25;;;;;;;38.63;22.13;;;17.80;58.00;;;;;;5046699;28;20486;-41
2022/03/30 12:02:53;;;;;;;29.87;19.10;;;17.80;57.60;;;;;;5048892;28;20496;-41
2022/03/30 12:05:19;;;;;;;24.67;13.90;;;17.70;57.60;;;;;;5047838;28;20431;-42
2022/03/30 12:07:50;;;;;;;21.17;11.93;;;17.70;57.80;;;;;;5043836;28;20434;-42
2022/03/30 12:10:16;;;;;;;21.37;10.30;;;17.70;57.70;;;;;;5046599;28;20279;-41
2022/03/30 12:12:42;;;;;;;15.53;10.07;;;17.70;57.60;;;;;;5048786;28;20454;-41
2022/03/30 12:15:26;;;;;;;18.03;10.10;;;17.80;57.40;;;;;;5052873;28;20799;-41
2022/03/30 12:17:57;;;;;;;13.13;8.77;;;17.80;57.30;;;;;;5045683;28;20442;-41
2022/03/30 12:20:30;;;;;;;18.70;10.27;;;17.80;57.30;;;;;;5043049;28;20483;-41
2022/03/30 12:23:04;;;;;;;15.90;10.60;;;17.80;57.40;;;;;;5038858;28;20452;-41
2022/03/30 12:25:35;;;;;;;17.43;9.77;;;17.80;57.30;;;;;;5039549;28;20454;-43
2022/03/30 12:28:01;;;;;;;19.83;9.67;;;17.80;57.30;;;;;;5047535;28;21035;-42
2022/03/30 12:30:36;;;;;;;13.73;9.33;;;17.90;57.10;;;;;;5043923;28;20435;-43
2022/03/30 12:33:02;;;;;;;16.10;8.43;;;17.90;57.00;;;;;;5040204;28;20443;-44
2022/03/30 12:35:37;;;;;;;19.33;8.83;;;17.90;57.10;;;;;;5043262;28;20917;-43
2022/03/30 12:38:07;;;;;;;16.53;9.00;;;17.90;57.20;;;;;;5043937;28;20439;-43
2022/03/30 12:40:35;;;;;;;22.13;9.23;;;17.90;57.10;;;;;;5049663;28;20522;-41
2022/03/30 12:43:01;;;;;;;16.93;9.77;;;17.90;57.00;;;;;;5043240;28;20474;-41